sensor_id;sensor_type;location;lat;lon;timestamp;P1;durP1;ratioP1;P2;durP2;ratioP2
51654;SDS011;37732;53.106;7.030;2024-03-02T00:00:01;8.05;;;5.60;;
51654;SDS011;37732;53.106;7.030;2024-03-02T00:02:39;8.93;;;6.20;;
51654;SDS011;37732;53.106;7.030;2024-03-02T00:05:15;9.15;;;6.10;;
51654;SDS011;37732;53.106;7.030;2024-03-02T00:07:46;8.57;;;6.07;;
51654;SDS011;37732;53.106;7.030;2024-03-02T00:10:19;7.78;;;5.97;;
51654;SDS011;37732;53.106;7.030;2024-03-02T00:12:48;9.23;;;7.10;;
51654;SDS011;37732;53.106;7.030;2024-03-02T00:18:13;8.80;;;5.72;;
51654;SDS011;37732;53.106;7.030;2024-03-02T00:20:41;7.70;;;6.10;;
51654;SDS011;37732;53.106;7.030;2024-03-02T00:23:08;8.35;;;5.82;;
51654;SDS011;37732;53.106;7.030;2024-03-02T00:28:03;8.63;;;6.40;;
51654;SDS011;37732;53.106;7.030;2024-03-02T00:33:26;7.35;;;5.75;;
51654;SDS011;37732;53.106;7.030;2024-03-02T00:35:53;10.57;;;6.00;;
51654;SDS011;37732;53.106;7.030;2024-03-02T00:38:19;9.85;;;6.75;;
51654;SDS011;37732;53.106;7.030;2024-03-02T00:40:45;8.20;;;5.78;;
51654;SDS011;37732;53.106;7.030;2024-03-02T00:45:55;6.88;;;5.43;;
51654;SDS011;37732;53.106;7.030;2024-03-02T00:48:22;8.00;;;5.88;;
51654;SDS011;37732;53.106;7.030;2024-03-02T00:50:50;8.10;;;5.75;;
51654;SDS011;37732;53.106;7.030;2024-03-02T00:53:17;6.88;;;5.50;;
51654;SDS011;37732;53.106;7.030;2024-03-02T00:55:48;8.98;;;6.30;;
51654;SDS011;37732;53.106;7.030;2024-03-02T00:58:14;9.82;;;6.32;;
51654;SDS011;37732;53.106;7.030;2024-03-02T01:00:40;8.80;;;6.80;;
51654;SDS011;37732;53.106;7.030;2024-03-02T01:03:05;7.07;;;5.28;;
51654;SDS011;37732;53.106;7.030;2024-03-02T01:05:32;12.05;;;7.07;;
51654;SDS011;37732;53.106;7.030;2024-03-02T01:07:58;8.35;;;6.00;;
51654;SDS011;37732;53.106;7.030;2024-03-02T01:10:24;7.65;;;6.10;;
51654;SDS011;37732;53.106;7.030;2024-03-02T01:12:51;9.20;;;5.55;;
51654;SDS011;37732;53.106;7.030;2024-03-02T01:15:17;9.45;;;6.75;;
51654;SDS011;37732;53.106;7.030;2024-03-02T01:17:42;9.13;;;6.80;;
51654;SDS011;37732;53.106;7.030;2024-03-02T01:20:08;8.38;;;6.15;;
51654;SDS011;37732;53.106;7.030;2024-03-02T01:22:34;6.63;;;5.07;;
51654;SDS011;37732;53.106;7.030;2024-03-02T01:25:01;7.93;;;5.88;;
51654;SDS011;37732;53.106;7.030;2024-03-02T01:27:27;8.38;;;6.20;;
51654;SDS011;37732;53.106;7.030;2024-03-02T01:29:53;8.10;;;5.60;;
51654;SDS011;37732;53.106;7.030;2024-03-02T01:32:19;7.22;;;5.60;;
51654;SDS011;37732;53.106;7.030;2024-03-02T01:34:45;7.20;;;5.70;;
51654;SDS011;37732;53.106;7.030;2024-03-02T01:37:11;7.43;;;5.45;;
51654;SDS011;37732;53.106;7.030;2024-03-02T01:39:37;8.38;;;5.47;;
51654;SDS011;37732;53.106;7.030;2024-03-02T01:42:02;7.82;;;5.60;;
51654;SDS011;37732;53.106;7.030;2024-03-02T01:44:28;6.50;;;4.72;;
51654;SDS011;37732;53.106;7.030;2024-03-02T01:46:54;6.28;;;5.03;;
51654;SDS011;37732;53.106;7.030;2024-03-02T01:49:20;9.25;;;5.70;;
51654;SDS011;37732;53.106;7.030;2024-03-02T01:51:46;7.28;;;5.32;;
51654;SDS011;37732;53.106;7.030;2024-03-02T01:54:11;8.63;;;5.45;;
51654;SDS011;37732;53.106;7.030;2024-03-02T01:56:37;7.78;;;5.18;;
51654;SDS011;37732;53.106;7.030;2024-03-02T01:59:03;6.35;;;4.20;;
51654;SDS011;37732;53.106;7.030;2024-03-02T02:03:57;7.45;;;5.40;;
51654;SDS011;37732;53.106;7.030;2024-03-02T02:06:22;6.45;;;4.70;;
51654;SDS011;37732;53.106;7.030;2024-03-02T02:08:48;8.07;;;4.88;;
51654;SDS011;37732;53.106;7.030;2024-03-02T02:11:14;6.13;;;4.22;;
51654;SDS011;37732;53.106;7.030;2024-03-02T02:13:41;6.25;;;4.43;;
51654;SDS011;37732;53.106;7.030;2024-03-02T02:16:07;5.82;;;4.20;;
51654;SDS011;37732;53.106;7.030;2024-03-02T02:18:33;6.72;;;3.95;;
51654;SDS011;37732;53.106;7.030;2024-03-02T02:20:59;6.93;;;3.97;;
51654;SDS011;37732;53.106;7.030;2024-03-02T02:23:25;6.47;;;4.28;;
51654;SDS011;37732;53.106;7.030;2024-03-02T02:25:50;6.22;;;3.97;;
51654;SDS011;37732;53.106;7.030;2024-03-02T02:28:16;6.45;;;4.15;;
51654;SDS011;37732;53.106;7.030;2024-03-02T02:30:42;6.60;;;3.95;;
51654;SDS011;37732;53.106;7.030;2024-03-02T02:33:08;5.47;;;3.58;;
51654;SDS011;37732;53.106;7.030;2024-03-02T02:35:34;6.97;;;4.22;;
51654;SDS011;37732;53.106;7.030;2024-03-02T02:38:00;8.07;;;4.18;;
51654;SDS011;37732;53.106;7.030;2024-03-02T02:40:27;5.60;;;3.67;;
51654;SDS011;37732;53.106;7.030;2024-03-02T02:42:55;5.78;;;3.80;;
51654;SDS011;37732;53.106;7.030;2024-03-02T02:45:21;5.22;;;3.60;;
51654;SDS011;37732;53.106;7.030;2024-03-02T02:47:47;6.45;;;3.92;;
51654;SDS011;37732;53.106;7.030;2024-03-02T02:50:13;6.10;;;3.45;;
51654;SDS011;37732;53.106;7.030;2024-03-02T02:52:40;5.40;;;3.67;;
51654;SDS011;37732;53.106;7.030;2024-03-02T02:55:07;5.95;;;4.22;;
51654;SDS011;37732;53.106;7.030;2024-03-02T02:57:34;6.35;;;3.50;;
51654;SDS011;37732;53.106;7.030;2024-03-02T03:00:03;5.53;;;3.50;;
51654;SDS011;37732;53.106;7.030;2024-03-02T03:02:35;5.63;;;3.38;;
51654;SDS011;37732;53.106;7.030;2024-03-02T03:05:04;5.95;;;3.70;;
51654;SDS011;37732;53.106;7.030;2024-03-02T03:07:31;6.05;;;4.10;;
51654;SDS011;37732;53.106;7.030;2024-03-02T03:09:58;4.30;;;2.95;;
51654;SDS011;37732;53.106;7.030;2024-03-02T03:12:24;5.15;;;3.33;;
51654;SDS011;37732;53.106;7.030;2024-03-02T03:14:50;5.85;;;3.17;;
51654;SDS011;37732;53.106;7.030;2024-03-02T03:17:15;5.22;;;3.20;;
51654;SDS011;37732;53.106;7.030;2024-03-02T03:19:44;5.88;;;3.60;;
51654;SDS011;37732;53.106;7.030;2024-03-02T03:22:10;5.63;;;2.97;;
51654;SDS011;37732;53.106;7.030;2024-03-02T03:24:35;4.90;;;3.33;;
51654;SDS011;37732;53.106;7.030;2024-03-02T03:27:01;5.88;;;3.13;;
51654;SDS011;37732;53.106;7.030;2024-03-02T03:29:27;4.75;;;3.22;;
51654;SDS011;37732;53.106;7.030;2024-03-02T03:31:53;4.93;;;3.50;;
51654;SDS011;37732;53.106;7.030;2024-03-02T03:34:18;6.88;;;4.25;;
51654;SDS011;37732;53.106;7.030;2024-03-02T03:36:44;5.72;;;3.60;;
51654;SDS011;37732;53.106;7.030;2024-03-02T03:39:10;6.07;;;3.35;;
51654;SDS011;37732;53.106;7.030;2024-03-02T03:41:35;5.72;;;2.92;;
51654;SDS011;37732;53.106;7.030;2024-03-02T03:44:01;5.35;;;2.67;;
51654;SDS011;37732;53.106;7.030;2024-03-02T03:46:27;3.25;;;2.53;;
51654;SDS011;37732;53.106;7.030;2024-03-02T03:48:52;5.95;;;3.40;;
51654;SDS011;37732;53.106;7.030;2024-03-02T03:51:18;4.85;;;3.28;;
51654;SDS011;37732;53.106;7.030;2024-03-02T03:53:43;5.13;;;3.22;;
51654;SDS011;37732;53.106;7.030;2024-03-02T03:56:09;5.38;;;3.85;;
51654;SDS011;37732;53.106;7.030;2024-03-02T03:58:35;4.75;;;3.20;;
51654;SDS011;37732;53.106;7.030;2024-03-02T04:01:00;5.10;;;3.00;;
51654;SDS011;37732;53.106;7.030;2024-03-02T04:03:26;5.10;;;3.20;;
51654;SDS011;37732;53.106;7.030;2024-03-02T04:05:52;4.80;;;3.13;;
51654;SDS011;37732;53.106;7.030;2024-03-02T04:08:17;6.28;;;3.08;;
51654;SDS011;37732;53.106;7.030;2024-03-02T04:10:43;5.40;;;3.10;;
51654;SDS011;37732;53.106;7.030;2024-03-02T04:13:09;4.72;;;3.20;;
51654;SDS011;37732;53.106;7.030;2024-03-02T04:15:34;5.82;;;3.30;;
51654;SDS011;37732;53.106;7.030;2024-03-02T04:18:00;5.40;;;3.75;;
51654;SDS011;37732;53.106;7.030;2024-03-02T04:20:26;4.65;;;3.15;;
51654;SDS011;37732;53.106;7.030;2024-03-02T04:22:52;7.53;;;3.47;;
51654;SDS011;37732;53.106;7.030;2024-03-02T04:25:18;4.53;;;2.97;;
51654;SDS011;37732;53.106;7.030;2024-03-02T04:27:44;7.05;;;3.38;;
51654;SDS011;37732;53.106;7.030;2024-03-02T04:30:10;5.55;;;3.38;;
51654;SDS011;37732;53.106;7.030;2024-03-02T04:32:37;6.60;;;3.85;;
51654;SDS011;37732;53.106;7.030;2024-03-02T04:35:02;4.93;;;3.00;;
51654;SDS011;37732;53.106;7.030;2024-03-02T04:37:29;6.38;;;3.42;;
51654;SDS011;37732;53.106;7.030;2024-03-02T04:39:55;5.50;;;3.10;;
51654;SDS011;37732;53.106;7.030;2024-03-02T04:42:21;6.95;;;3.63;;
51654;SDS011;37732;53.106;7.030;2024-03-02T04:44:47;3.97;;;2.80;;
51654;SDS011;37732;53.106;7.030;2024-03-02T04:47:13;5.93;;;3.20;;
51654;SDS011;37732;53.106;7.030;2024-03-02T04:49:39;5.43;;;3.78;;
51654;SDS011;37732;53.106;7.030;2024-03-02T04:52:05;7.20;;;3.83;;
51654;SDS011;37732;53.106;7.030;2024-03-02T04:54:30;5.20;;;2.78;;
51654;SDS011;37732;53.106;7.030;2024-03-02T04:56:56;4.85;;;3.03;;
51654;SDS011;37732;53.106;7.030;2024-03-02T04:59:22;5.97;;;3.83;;
51654;SDS011;37732;53.106;7.030;2024-03-02T05:01:50;5.60;;;3.25;;
51654;SDS011;37732;53.106;7.030;2024-03-02T05:04:16;5.47;;;3.63;;
51654;SDS011;37732;53.106;7.030;2024-03-02T05:06:42;6.25;;;3.47;;
51654;SDS011;37732;53.106;7.030;2024-03-02T05:09:10;5.05;;;3.00;;
51654;SDS011;37732;53.106;7.030;2024-03-02T05:11:36;4.88;;;3.45;;
51654;SDS011;37732;53.106;7.030;2024-03-02T05:14:02;5.50;;;3.35;;
51654;SDS011;37732;53.106;7.030;2024-03-02T05:16:27;5.35;;;3.50;;
51654;SDS011;37732;53.106;7.030;2024-03-02T05:18:53;4.82;;;3.28;;
51654;SDS011;37732;53.106;7.030;2024-03-02T05:21:19;5.72;;;3.58;;
51654;SDS011;37732;53.106;7.030;2024-03-02T05:23:45;5.70;;;3.58;;
51654;SDS011;37732;53.106;7.030;2024-03-02T05:26:11;5.05;;;3.13;;
51654;SDS011;37732;53.106;7.030;2024-03-02T05:28:39;4.85;;;3.17;;
51654;SDS011;37732;53.106;7.030;2024-03-02T05:31:05;5.35;;;3.15;;
51654;SDS011;37732;53.106;7.030;2024-03-02T05:33:31;4.65;;;3.03;;
51654;SDS011;37732;53.106;7.030;2024-03-02T05:35:58;4.72;;;3.17;;
51654;SDS011;37732;53.106;7.030;2024-03-02T05:38:24;6.03;;;3.20;;
51654;SDS011;37732;53.106;7.030;2024-03-02T05:40:50;5.68;;;3.42;;
51654;SDS011;37732;53.106;7.030;2024-03-02T05:43:16;5.15;;;3.20;;
51654;SDS011;37732;53.106;7.030;2024-03-02T05:45:43;6.10;;;3.60;;
51654;SDS011;37732;53.106;7.030;2024-03-02T05:48:08;5.65;;;3.40;;
51654;SDS011;37732;53.106;7.030;2024-03-02T05:50:34;5.43;;;3.22;;
51654;SDS011;37732;53.106;7.030;2024-03-02T05:53:00;5.57;;;3.90;;
51654;SDS011;37732;53.106;7.030;2024-03-02T05:55:26;6.13;;;3.85;;
51654;SDS011;37732;53.106;7.030;2024-03-02T05:57:51;5.85;;;3.47;;
51654;SDS011;37732;53.106;7.030;2024-03-02T06:00:23;6.13;;;4.30;;
51654;SDS011;37732;53.106;7.030;2024-03-02T06:02:48;6.68;;;4.25;;
51654;SDS011;37732;53.106;7.030;2024-03-02T06:05:14;5.13;;;3.42;;
51654;SDS011;37732;53.106;7.030;2024-03-02T06:07:42;6.45;;;3.70;;
51654;SDS011;37732;53.106;7.030;2024-03-02T06:10:10;5.53;;;3.50;;
51654;SDS011;37732;53.106;7.030;2024-03-02T06:12:36;6.00;;;3.78;;
51654;SDS011;37732;53.106;7.030;2024-03-02T06:15:02;5.75;;;3.38;;
51654;SDS011;37732;53.106;7.030;2024-03-02T06:17:29;8.80;;;3.95;;
51654;SDS011;37732;53.106;7.030;2024-03-02T06:19:54;7.72;;;4.15;;
51654;SDS011;37732;53.106;7.030;2024-03-02T06:22:20;6.05;;;3.67;;
51654;SDS011;37732;53.106;7.030;2024-03-02T06:24:48;6.40;;;3.78;;
51654;SDS011;37732;53.106;7.030;2024-03-02T06:27:14;6.25;;;3.42;;
51654;SDS011;37732;53.106;7.030;2024-03-02T06:29:39;5.65;;;3.60;;
51654;SDS011;37732;53.106;7.030;2024-03-02T06:32:05;6.97;;;3.72;;
51654;SDS011;37732;53.106;7.030;2024-03-02T06:34:31;7.72;;;4.28;;
51654;SDS011;37732;53.106;7.030;2024-03-02T06:36:57;5.82;;;4.10;;
51654;SDS011;37732;53.106;7.030;2024-03-02T06:39:22;5.40;;;3.60;;
51654;SDS011;37732;53.106;7.030;2024-03-02T06:41:48;6.43;;;4.30;;
51654;SDS011;37732;53.106;7.030;2024-03-02T06:44:14;6.50;;;3.92;;
51654;SDS011;37732;53.106;7.030;2024-03-02T06:46:39;5.40;;;3.88;;
51654;SDS011;37732;53.106;7.030;2024-03-02T06:49:05;8.88;;;4.28;;
51654;SDS011;37732;53.106;7.030;2024-03-02T06:51:30;6.10;;;3.67;;
51654;SDS011;37732;53.106;7.030;2024-03-02T06:53:56;5.80;;;3.92;;
51654;SDS011;37732;53.106;7.030;2024-03-02T06:56:22;5.85;;;3.97;;
51654;SDS011;37732;53.106;7.030;2024-03-02T06:58:47;5.82;;;3.97;;
51654;SDS011;37732;53.106;7.030;2024-03-02T07:01:13;6.28;;;3.85;;
51654;SDS011;37732;53.106;7.030;2024-03-02T07:03:39;6.05;;;4.05;;
51654;SDS011;37732;53.106;7.030;2024-03-02T07:06:05;6.68;;;4.10;;
51654;SDS011;37732;53.106;7.030;2024-03-02T07:08:30;5.88;;;3.90;;
51654;SDS011;37732;53.106;7.030;2024-03-02T07:10:56;5.50;;;3.67;;
51654;SDS011;37732;53.106;7.030;2024-03-02T07:13:22;8.32;;;4.20;;
51654;SDS011;37732;53.106;7.030;2024-03-02T07:15:48;5.50;;;3.45;;
51654;SDS011;37732;53.106;7.030;2024-03-02T07:18:29;6.15;;;3.75;;
51654;SDS011;37732;53.106;7.030;2024-03-02T07:21:06;5.90;;;3.33;;
51654;SDS011;37732;53.106;7.030;2024-03-02T07:23:32;7.28;;;3.47;;
51654;SDS011;37732;53.106;7.030;2024-03-02T07:25:59;5.95;;;3.80;;
51654;SDS011;37732;53.106;7.030;2024-03-02T07:28:26;5.20;;;3.67;;
51654;SDS011;37732;53.106;7.030;2024-03-02T07:31:02;7.03;;;3.63;;
51654;SDS011;37732;53.106;7.030;2024-03-02T07:33:32;6.45;;;3.80;;
51654;SDS011;37732;53.106;7.030;2024-03-02T07:35:59;6.43;;;3.63;;
51654;SDS011;37732;53.106;7.030;2024-03-02T07:38:26;5.35;;;3.58;;
51654;SDS011;37732;53.106;7.030;2024-03-02T07:40:52;7.35;;;4.07;;
51654;SDS011;37732;53.106;7.030;2024-03-02T07:43:18;5.53;;;3.58;;
51654;SDS011;37732;53.106;7.030;2024-03-02T07:45:47;6.10;;;4.22;;
51654;SDS011;37732;53.106;7.030;2024-03-02T07:48:13;6.85;;;4.22;;
51654;SDS011;37732;53.106;7.030;2024-03-02T07:50:40;6.30;;;4.30;;
51654;SDS011;37732;53.106;7.030;2024-03-02T07:53:06;5.28;;;3.60;;
51654;SDS011;37732;53.106;7.030;2024-03-02T07:55:33;6.57;;;3.80;;
51654;SDS011;37732;53.106;7.030;2024-03-02T07:57:59;6.13;;;3.80;;
51654;SDS011;37732;53.106;7.030;2024-03-02T08:00:25;6.97;;;4.22;;
51654;SDS011;37732;53.106;7.030;2024-03-02T08:02:52;7.50;;;4.40;;
51654;SDS011;37732;53.106;7.030;2024-03-02T08:05:18;6.38;;;4.03;;
51654;SDS011;37732;53.106;7.030;2024-03-02T08:07:44;6.95;;;4.05;;
51654;SDS011;37732;53.106;7.030;2024-03-02T08:10:10;6.43;;;4.40;;
51654;SDS011;37732;53.106;7.030;2024-03-02T08:12:36;5.53;;;3.88;;
51654;SDS011;37732;53.106;7.030;2024-03-02T08:15:02;7.07;;;4.13;;
51654;SDS011;37732;53.106;7.030;2024-03-02T08:17:29;7.03;;;4.35;;
51654;SDS011;37732;53.106;7.030;2024-03-02T08:19:55;6.95;;;4.15;;
51654;SDS011;37732;53.106;7.030;2024-03-02T08:22:21;5.80;;;4.35;;
51654;SDS011;37732;53.106;7.030;2024-03-02T08:24:47;7.47;;;3.97;;
51654;SDS011;37732;53.106;7.030;2024-03-02T08:27:13;7.05;;;4.00;;
51654;SDS011;37732;53.106;7.030;2024-03-02T08:29:40;7.13;;;4.68;;
51654;SDS011;37732;53.106;7.030;2024-03-02T08:32:06;6.82;;;4.32;;
51654;SDS011;37732;53.106;7.030;2024-03-02T08:34:32;6.22;;;3.72;;
51654;SDS011;37732;53.106;7.030;2024-03-02T08:37:00;5.47;;;3.58;;
51654;SDS011;37732;53.106;7.030;2024-03-02T08:39:30;6.97;;;4.28;;
51654;SDS011;37732;53.106;7.030;2024-03-02T08:41:56;5.95;;;3.55;;
51654;SDS011;37732;53.106;7.030;2024-03-02T08:44:21;6.82;;;4.28;;
51654;SDS011;37732;53.106;7.030;2024-03-02T08:46:47;6.90;;;4.10;;
51654;SDS011;37732;53.106;7.030;2024-03-02T08:49:13;7.25;;;3.78;;
51654;SDS011;37732;53.106;7.030;2024-03-02T08:51:38;5.82;;;3.75;;
51654;SDS011;37732;53.106;7.030;2024-03-02T08:54:04;7.65;;;4.03;;
51654;SDS011;37732;53.106;7.030;2024-03-02T08:56:30;6.50;;;4.18;;
51654;SDS011;37732;53.106;7.030;2024-03-02T08:58:56;5.57;;;3.70;;
51654;SDS011;37732;53.106;7.030;2024-03-02T09:01:22;5.35;;;3.47;;
51654;SDS011;37732;53.106;7.030;2024-03-02T09:03:48;6.63;;;3.85;;
51654;SDS011;37732;53.106;7.030;2024-03-02T09:06:14;4.78;;;3.15;;
51654;SDS011;37732;53.106;7.030;2024-03-02T09:08:45;5.55;;;3.75;;
51654;SDS011;37732;53.106;7.030;2024-03-02T09:11:11;6.45;;;3.72;;
51654;SDS011;37732;53.106;7.030;2024-03-02T09:13:37;6.63;;;3.75;;
51654;SDS011;37732;53.106;7.030;2024-03-02T09:16:03;4.85;;;3.40;;
51654;SDS011;37732;53.106;7.030;2024-03-02T09:18:30;7.05;;;3.63;;
51654;SDS011;37732;53.106;7.030;2024-03-02T09:20:56;5.63;;;3.50;;
51654;SDS011;37732;53.106;7.030;2024-03-02T09:23:21;6.55;;;3.72;;
51654;SDS011;37732;53.106;7.030;2024-03-02T09:25:47;5.72;;;3.90;;
51654;SDS011;37732;53.106;7.030;2024-03-02T09:28:15;6.55;;;4.25;;
51654;SDS011;37732;53.106;7.030;2024-03-02T09:30:41;4.80;;;3.10;;
51654;SDS011;37732;53.106;7.030;2024-03-02T09:33:06;6.93;;;3.42;;
51654;SDS011;37732;53.106;7.030;2024-03-02T09:35:32;5.30;;;3.08;;
51654;SDS011;37732;53.106;7.030;2024-03-02T09:37:57;6.32;;;2.90;;
51654;SDS011;37732;53.106;7.030;2024-03-02T09:40:23;6.32;;;3.10;;
51654;SDS011;37732;53.106;7.030;2024-03-02T09:42:49;6.43;;;2.42;;
51654;SDS011;37732;53.106;7.030;2024-03-02T09:45:20;3.60;;;2.35;;
51654;SDS011;37732;53.106;7.030;2024-03-02T09:47:49;4.15;;;2.28;;
51654;SDS011;37732;53.106;7.030;2024-03-02T09:50:14;3.17;;;1.77;;
51654;SDS011;37732;53.106;7.030;2024-03-02T09:52:42;5.28;;;1.90;;
51654;SDS011;37732;53.106;7.030;2024-03-02T09:55:08;2.63;;;1.40;;
51654;SDS011;37732;53.106;7.030;2024-03-02T09:57:37;3.33;;;1.75;;
51654;SDS011;37732;53.106;7.030;2024-03-02T10:00:03;4.10;;;2.00;;
51654;SDS011;37732;53.106;7.030;2024-03-02T10:02:30;3.65;;;1.85;;
51654;SDS011;37732;53.106;7.030;2024-03-02T10:04:55;5.13;;;2.80;;
51654;SDS011;37732;53.106;7.030;2024-03-02T10:07:24;3.60;;;1.83;;
51654;SDS011;37732;53.106;7.030;2024-03-02T10:09:50;3.10;;;1.90;;
51654;SDS011;37732;53.106;7.030;2024-03-02T10:12:17;5.05;;;2.10;;
51654;SDS011;37732;53.106;7.030;2024-03-02T10:14:44;2.92;;;1.77;;
51654;SDS011;37732;53.106;7.030;2024-03-02T10:17:13;4.50;;;1.88;;
51654;SDS011;37732;53.106;7.030;2024-03-02T10:19:40;4.35;;;1.80;;
51654;SDS011;37732;53.106;7.030;2024-03-02T10:22:07;3.80;;;1.60;;
51654;SDS011;37732;53.106;7.030;2024-03-02T10:27:07;3.85;;;2.05;;
51654;SDS011;37732;53.106;7.030;2024-03-02T10:29:38;4.47;;;1.77;;
51654;SDS011;37732;53.106;7.030;2024-03-02T10:32:05;5.60;;;2.42;;
51654;SDS011;37732;53.106;7.030;2024-03-02T10:34:31;4.22;;;2.38;;
51654;SDS011;37732;53.106;7.030;2024-03-02T10:36:57;4.57;;;2.45;;
51654;SDS011;37732;53.106;7.030;2024-03-02T10:39:24;4.80;;;2.30;;
51654;SDS011;37732;53.106;7.030;2024-03-02T10:41:50;3.70;;;2.50;;
51654;SDS011;37732;53.106;7.030;2024-03-02T10:44:18;7.05;;;3.05;;
51654;SDS011;37732;53.106;7.030;2024-03-02T10:46:45;5.47;;;2.75;;
51654;SDS011;37732;53.106;7.030;2024-03-02T10:49:12;5.45;;;3.00;;
51654;SDS011;37732;53.106;7.030;2024-03-02T10:51:38;4.20;;;2.72;;
51654;SDS011;37732;53.106;7.030;2024-03-02T10:54:04;5.18;;;3.20;;
51654;SDS011;37732;53.106;7.030;2024-03-02T10:56:33;4.95;;;3.17;;
51654;SDS011;37732;53.106;7.030;2024-03-02T11:01:51;6.50;;;3.17;;
51654;SDS011;37732;53.106;7.030;2024-03-02T11:04:24;4.40;;;3.28;;
51654;SDS011;37732;53.106;7.030;2024-03-02T11:06:51;5.13;;;3.20;;
51654;SDS011;37732;53.106;7.030;2024-03-02T11:09:21;7.93;;;3.78;;
51654;SDS011;37732;53.106;7.030;2024-03-02T11:11:51;5.07;;;3.20;;
51654;SDS011;37732;53.106;7.030;2024-03-02T11:14:25;5.97;;;3.42;;
51654;SDS011;37732;53.106;7.030;2024-03-02T11:16:50;5.57;;;3.40;;
51654;SDS011;37732;53.106;7.030;2024-03-02T11:19:17;8.30;;;3.45;;
51654;SDS011;37732;53.106;7.030;2024-03-02T11:21:43;6.65;;;3.70;;
51654;SDS011;37732;53.106;7.030;2024-03-02T11:26:52;5.30;;;3.53;;
51654;SDS011;37732;53.106;7.030;2024-03-02T11:32:15;7.53;;;4.22;;
51654;SDS011;37732;53.106;7.030;2024-03-02T11:34:43;5.68;;;3.80;;
51654;SDS011;37732;53.106;7.030;2024-03-02T11:37:15;5.95;;;3.95;;
51654;SDS011;37732;53.106;7.030;2024-03-02T11:39:49;4.55;;;3.42;;
51654;SDS011;37732;53.106;7.030;2024-03-02T11:42:15;5.60;;;3.53;;
51654;SDS011;37732;53.106;7.030;2024-03-02T11:44:45;5.30;;;4.10;;
51654;SDS011;37732;53.106;7.030;2024-03-02T11:47:13;6.45;;;4.15;;
51654;SDS011;37732;53.106;7.030;2024-03-02T11:49:49;5.10;;;4.28;;
51654;SDS011;37732;53.106;7.030;2024-03-02T11:52:19;5.38;;;3.80;;
51654;SDS011;37732;53.106;7.030;2024-03-02T11:54:47;5.90;;;4.22;;
51654;SDS011;37732;53.106;7.030;2024-03-02T11:57:23;6.25;;;3.80;;
51654;SDS011;37732;53.106;7.030;2024-03-02T11:59:49;5.20;;;3.78;;
51654;SDS011;37732;53.106;7.030;2024-03-02T12:02:15;5.53;;;4.00;;
51654;SDS011;37732;53.106;7.030;2024-03-02T12:04:43;5.15;;;3.80;;
51654;SDS011;37732;53.106;7.030;2024-03-02T12:07:10;5.45;;;3.22;;
51654;SDS011;37732;53.106;7.030;2024-03-02T12:09:36;6.40;;;4.05;;
51654;SDS011;37732;53.106;7.030;2024-03-02T12:14:32;5.32;;;3.17;;
51654;SDS011;37732;53.106;7.030;2024-03-02T12:16:58;4.75;;;3.22;;
51654;SDS011;37732;53.106;7.030;2024-03-02T12:19:25;5.45;;;2.83;;
51654;SDS011;37732;53.106;7.030;2024-03-02T12:21:51;4.07;;;2.80;;
51654;SDS011;37732;53.106;7.030;2024-03-02T12:24:18;4.63;;;2.78;;
51654;SDS011;37732;53.106;7.030;2024-03-02T12:26:43;3.75;;;2.75;;
51654;SDS011;37732;53.106;7.030;2024-03-02T12:29:10;4.55;;;2.80;;
51654;SDS011;37732;53.106;7.030;2024-03-02T12:31:36;3.85;;;2.63;;
51654;SDS011;37732;53.106;7.030;2024-03-02T12:34:03;4.25;;;2.80;;
51654;SDS011;37732;53.106;7.030;2024-03-02T12:36:29;4.85;;;2.60;;
51654;SDS011;37732;53.106;7.030;2024-03-02T12:38:54;3.88;;;2.65;;
51654;SDS011;37732;53.106;7.030;2024-03-02T12:41:20;4.60;;;2.80;;
51654;SDS011;37732;53.106;7.030;2024-03-02T12:43:46;4.18;;;2.75;;
51654;SDS011;37732;53.106;7.030;2024-03-02T12:46:12;4.60;;;2.78;;
51654;SDS011;37732;53.106;7.030;2024-03-02T12:48:38;4.68;;;2.80;;
51654;SDS011;37732;53.106;7.030;2024-03-02T12:51:07;4.65;;;2.78;;
51654;SDS011;37732;53.106;7.030;2024-03-02T12:53:33;5.22;;;2.88;;
51654;SDS011;37732;53.106;7.030;2024-03-02T12:55:58;5.28;;;2.70;;
51654;SDS011;37732;53.106;7.030;2024-03-02T12:58:24;3.58;;;2.22;;
51654;SDS011;37732;53.106;7.030;2024-03-02T13:01:05;5.22;;;2.50;;
51654;SDS011;37732;53.106;7.030;2024-03-02T13:03:40;3.72;;;2.50;;
51654;SDS011;37732;53.106;7.030;2024-03-02T13:06:06;4.93;;;2.90;;
51654;SDS011;37732;53.106;7.030;2024-03-02T13:08:33;5.30;;;2.95;;
51654;SDS011;37732;53.106;7.030;2024-03-02T13:10:59;4.57;;;3.08;;
51654;SDS011;37732;53.106;7.030;2024-03-02T13:13:25;5.00;;;3.50;;
51654;SDS011;37732;53.106;7.030;2024-03-02T13:15:54;3.85;;;2.85;;
51654;SDS011;37732;53.106;7.030;2024-03-02T13:18:21;8.25;;;3.58;;
51654;SDS011;37732;53.106;7.030;2024-03-02T13:20:47;6.43;;;3.50;;
51654;SDS011;37732;53.106;7.030;2024-03-02T13:23:13;6.75;;;3.42;;
51654;SDS011;37732;53.106;7.030;2024-03-02T13:25:39;5.80;;;3.38;;
51654;SDS011;37732;53.106;7.030;2024-03-02T13:28:05;5.18;;;3.60;;
51654;SDS011;37732;53.106;7.030;2024-03-02T13:30:32;5.38;;;3.33;;
51654;SDS011;37732;53.106;7.030;2024-03-02T13:32:58;5.13;;;3.58;;
51654;SDS011;37732;53.106;7.030;2024-03-02T13:35:24;5.18;;;3.35;;
51654;SDS011;37732;53.106;7.030;2024-03-02T13:37:49;4.95;;;3.33;;
51654;SDS011;37732;53.106;7.030;2024-03-02T13:40:15;4.60;;;3.25;;
51654;SDS011;37732;53.106;7.030;2024-03-02T13:42:45;5.10;;;3.20;;
51654;SDS011;37732;53.106;7.030;2024-03-02T13:45:12;4.95;;;2.90;;
51654;SDS011;37732;53.106;7.030;2024-03-02T13:47:38;7.18;;;3.25;;
51654;SDS011;37732;53.106;7.030;2024-03-02T13:50:04;6.28;;;3.10;;
51654;SDS011;37732;53.106;7.030;2024-03-02T13:52:31;5.07;;;2.88;;
51654;SDS011;37732;53.106;7.030;2024-03-02T13:54:57;5.70;;;3.38;;
51654;SDS011;37732;53.106;7.030;2024-03-02T13:57:22;5.05;;;3.40;;
51654;SDS011;37732;53.106;7.030;2024-03-02T13:59:48;4.65;;;3.25;;
51654;SDS011;37732;53.106;7.030;2024-03-02T14:02:14;5.40;;;2.67;;
51654;SDS011;37732;53.106;7.030;2024-03-02T14:04:40;4.32;;;2.90;;
51654;SDS011;37732;53.106;7.030;2024-03-02T14:07:06;5.55;;;2.55;;
51654;SDS011;37732;53.106;7.030;2024-03-02T14:09:32;4.82;;;2.95;;
51654;SDS011;37732;53.106;7.030;2024-03-02T14:11:58;3.72;;;2.85;;
51654;SDS011;37732;53.106;7.030;2024-03-02T14:14:26;5.40;;;2.90;;
51654;SDS011;37732;53.106;7.030;2024-03-02T14:16:52;4.32;;;3.13;;
51654;SDS011;37732;53.106;7.030;2024-03-02T14:19:19;4.55;;;2.50;;
51654;SDS011;37732;53.106;7.030;2024-03-02T14:21:46;5.28;;;2.85;;
51654;SDS011;37732;53.106;7.030;2024-03-02T14:24:12;4.55;;;2.65;;
51654;SDS011;37732;53.106;7.030;2024-03-02T14:26:39;4.22;;;2.65;;
51654;SDS011;37732;53.106;7.030;2024-03-02T14:29:05;5.20;;;2.30;;
51654;SDS011;37732;53.106;7.030;2024-03-02T14:31:31;4.82;;;2.63;;
51654;SDS011;37732;53.106;7.030;2024-03-02T14:33:57;4.25;;;2.55;;
51654;SDS011;37732;53.106;7.030;2024-03-02T14:36:24;3.90;;;2.80;;
51654;SDS011;37732;53.106;7.030;2024-03-02T14:38:52;4.22;;;2.42;;
51654;SDS011;37732;53.106;7.030;2024-03-02T14:41:18;5.72;;;2.75;;
51654;SDS011;37732;53.106;7.030;2024-03-02T14:43:44;6.10;;;2.72;;
51654;SDS011;37732;53.106;7.030;2024-03-02T14:46:09;4.85;;;2.60;;
51654;SDS011;37732;53.106;7.030;2024-03-02T14:48:36;6.03;;;3.65;;
51654;SDS011;37732;53.106;7.030;2024-03-02T14:51:03;4.57;;;2.70;;
51654;SDS011;37732;53.106;7.030;2024-03-02T14:53:29;5.10;;;2.80;;
51654;SDS011;37732;53.106;7.030;2024-03-02T14:55:54;5.00;;;2.85;;
51654;SDS011;37732;53.106;7.030;2024-03-02T14:58:20;5.50;;;2.85;;
51654;SDS011;37732;53.106;7.030;2024-03-02T15:00:46;6.20;;;3.20;;
51654;SDS011;37732;53.106;7.030;2024-03-02T15:03:12;6.30;;;3.45;;
51654;SDS011;37732;53.106;7.030;2024-03-02T15:05:38;4.40;;;3.20;;
51654;SDS011;37732;53.106;7.030;2024-03-02T15:08:05;5.15;;;2.97;;
51654;SDS011;37732;53.106;7.030;2024-03-02T15:10:31;5.13;;;3.17;;